Time;durP1;ratioP1;P1;durP2;ratioP2;P2;SDS_P1;SDS_P2;PMS_P1;PMS_P2;Temp;Humidity;BMP_temperature;BMP_pressure;BME280_temperature;BME280_humidity;BME280_pressure;Samples;Min_cycle;Max_cycle;Signal;HPM_P1;HPM_P2
2022/09/08 00:01:17;;;;;;;0.52;0.40;;;;;;;;;;2048786;28;20035;-66
2022/09/08 00:02:36;;;;;;;0.60;0.50;;;;;;;;;;2044647;28;20067;-66
2022/09/08 00:03:55;;;;;;;0.35;0.35;;;;;;;;;;2048913;28;20379;-66
2022/09/08 00:05:15;;;;;;;1.05;0.47;;;;;;;;;;2047593;28;20035;-66
2022/09/08 00:06:34;;;;;;;0.60;0.60;;;;;;;;;;2045149;28;20035;-66
2022/09/08 00:07:55;;;;;;;0.45;0.40;;;;;;;;;;2046095;28;20055;-66
2022/09/08 00:09:14;;;;;;;0.47;0.40;;;;;;;;;;2050763;28;20484;-66
2022/09/08 00:10:34;;;;;;;1.10;0.30;;;;;;;;;;2049849;28;20074;-66
2022/09/08 00:11:54;;;;;;;3.20;0.68;;;;;;;;;;2049044;28;20031;-66
2022/09/08 00:13:14;;;;;;;0.98;0.40;;;;;;;;;;2052284;28;20026;-66
2022/09/08 00:14:33;;;;;;;0.30;0.30;;;;;;;;;;2049973;28;20490;-66
2022/09/08 00:15:52;;;;;;;1.38;0.45;;;;;;;;;;2047989;28;20215;-66
2022/09/08 00:17:11;;;;;;;0.30;0.30;;;;;;;;;;2052141;28;20035;-66
2022/09/08 00:18:30;;;;;;;2.42;0.50;;;;;;;;;;2050940;28;20039;-66
2022/09/08 00:19:49;;;;;;;1.90;0.47;;;;;;;;;;2049308;28;20023;-66
2022/09/08 00:21:08;;;;;;;1.38;0.40;;;;;;;;;;2050417;28;20428;-66
2022/09/08 00:22:27;;;;;;;0.50;0.40;;;;;;;;;;2042185;29;20051;-66
2022/09/08 00:23:46;;;;;;;0.90;0.35;;;;;;;;;;2047832;28;20043;-66
2022/09/08 00:25:05;;;;;;;0.93;0.40;;;;;;;;;;2047001;28;20463;-66
2022/09/08 00:26:24;;;;;;;0.40;0.40;;;;;;;;;;2049076;28;20118;-66
2022/09/08 00:27:43;;;;;;;0.73;0.57;;;;;;;;;;2047586;28;20070;-66
2022/09/08 00:29:02;;;;;;;0.60;0.57;;;;;;;;;;2051292;28;20044;-66
2022/09/08 00:30:21;;;;;;;0.38;0.30;;;;;;;;;;2048933;28;20039;-66
2022/09/08 00:31:40;;;;;;;0.28;0.25;;;;;;;;;;2047779;28;20031;-67
2022/09/08 00:32:59;;;;;;;0.63;0.40;;;;;;;;;;2051289;28;20035;-67
2022/09/08 00:34:18;;;;;;;0.45;0.45;;;;;;;;;;2049834;28;20027;-66
2022/09/08 00:35:41;;;;;;;0.82;0.77;;;;;;;;;;2051234;28;20023;-66
2022/09/08 00:37:00;;;;;;;2.35;0.65;;;;;;;;;;2049345;28;20485;-66
2022/09/08 00:38:20;;;;;;;0.40;0.40;;;;;;;;;;2048540;28;20035;-66
2022/09/08 00:39:39;;;;;;;1.05;0.45;;;;;;;;;;2046265;28;20035;-65
2022/09/08 00:40:58;;;;;;;0.50;0.50;;;;;;;;;;2049493;28;20031;-66
2022/09/08 00:42:17;;;;;;;0.77;0.50;;;;;;;;;;2048155;28;20027;-66
2022/09/08 00:43:38;;;;;;;1.10;0.55;;;;;;;;;;2051567;28;20047;-66
2022/09/08 00:44:57;;;;;;;0.35;0.35;;;;;;;;;;2052571;28;20055;-66
2022/09/08 00:46:31;;;;;;;1.65;0.40;;;;;;;;;;2049523;28;20031;-66
2022/09/08 00:47:49;;;;;;;;;;;;;;;;;;2050413;28;20039;-66
2022/09/08 00:49:08;;;;;;;0.40;0.40;;;;;;;;;;2052458;28;19906;-66
2022/09/08 00:50:28;;;;;;;1.23;0.50;;;;;;;;;;2050401;28;20043;-66
2022/09/08 00:51:51;;;;;;;1.02;0.70;;;;;;;;;;2048781;28;20504;-66
2022/09/08 00:53:12;;;;;;;0.50;0.50;;;;;;;;;;2050423;28;20408;-66
2022/09/08 00:54:31;;;;;;;0.52;0.47;;;;;;;;;;2052184;28;20035;-66
2022/09/08 00:55:50;;;;;;;1.55;0.40;;;;;;;;;;2047271;28;20023;-66
2022/09/08 00:57:09;;;;;;;0.98;0.40;;;;;;;;;;2049908;28;20027;-67
2022/09/08 00:58:28;;;;;;;1.42;0.30;;;;;;;;;;2047752;28;20035;-66
2022/09/08 00:59:48;;;;;;;1.48;0.60;;;;;;;;;;2048677;28;20039;-66
2022/09/08 01:01:08;;;;;;;1.08;0.40;;;;;;;;;;2051964;28;20038;-66
2022/09/08 01:02:27;;;;;;;0.30;0.30;;;;;;;;;;2049901;28;20491;-66
2022/09/08 01:03:46;;;;;;;0.50;0.50;;;;;;;;;;2050197;28;20047;-66
2022/09/08 01:05:09;;;;;;;2.97;0.88;;;;;;;;;;2051790;28;20027;-66
2022/09/08 01:13:26;;;;;;;0.38;0.38;;;;;;;;;;2050841;28;20106;-66
2022/09/08 01:14:46;;;;;;;1.50;0.40;;;;;;;;;;2052896;28;20364;-66
2022/09/08 01:16:07;;;;;;;0.40;0.40;;;;;;;;;;2047484;28;20027;-66
2022/09/08 01:17:28;;;;;;;0.70;0.47;;;;;;;;;;2049768;28;20031;-67
2022/09/08 01:18:48;;;;;;;0.85;0.52;;;;;;;;;;2052484;28;20101;-67
2022/09/08 01:20:08;;;;;;;0.57;0.57;;;;;;;;;;2048430;28;20106;-67
2022/09/08 01:21:39;;;;;;;0.40;0.40;;;;;;;;;;2051085;28;20039;-67
2022/09/08 01:23:01;;;;;;;0.70;0.40;;;;;;;;;;2050384;28;20034;-67
2022/09/08 01:24:23;;;;;;;1.80;0.47;;;;;;;;;;2047064;28;20023;-66
2022/09/08 01:26:07;;;;;;;2.90;0.40;;;;;;;;;;2050465;28;20038;-67
2022/09/08 01:27:26;;;;;;;;;;;;;;;;;;2041235;29;20046;-66
2022/09/08 01:28:47;;;;;;;0.40;0.40;;;;;;;;;;2045813;28;19911;-67
2022/09/08 01:30:10;;;;;;;0.47;0.47;;;;;;;;;;2044883;28;20476;-67
2022/09/08 01:31:37;;;;;;;1.17;0.50;;;;;;;;;;2050480;28;20500;-66
2022/09/08 01:32:56;;;;;;;0.40;0.40;;;;;;;;;;2041851;29;20040;-66
2022/09/08 01:34:15;;;;;;;0.57;0.40;;;;;;;;;;2048092;28;20031;-66
2022/09/08 01:35:40;;;;;;;0.45;0.45;;;;;;;;;;2049885;28;20432;-66
2022/09/08 01:36:59;;;;;;;0.55;0.40;;;;;;;;;;2050914;28;20413;-66
2022/09/08 01:38:18;;;;;;;0.65;0.57;;;;;;;;;;2049206;28;20027;-66
2022/09/08 01:39:38;;;;;;;0.80;0.50;;;;;;;;;;2050770;28;20026;-66
2022/09/08 01:40:57;;;;;;;0.52;0.50;;;;;;;;;;2051985;28;20062;-66
2022/09/08 01:42:16;;;;;;;0.30;0.30;;;;;;;;;;2052304;28;20035;-66
2022/09/08 01:43:35;;;;;;;0.30;0.30;;;;;;;;;;2049211;28;20087;-66
2022/09/08 01:44:53;;;;;;;2.50;0.40;;;;;;;;;;2050644;28;20075;-66
2022/09/08 01:46:13;;;;;;;0.63;0.30;;;;;;;;;;2049348;28;20039;-66
2022/09/08 01:47:32;;;;;;;0.40;0.40;;;;;;;;;;2047225;28;20110;-66
2022/09/08 01:48:51;;;;;;;0.57;0.57;;;;;;;;;;2049591;28;20040;-66
2022/09/08 01:50:10;;;;;;;0.80;0.40;;;;;;;;;;2049088;28;20034;-66
2022/09/08 01:51:28;;;;;;;0.38;0.38;;;;;;;;;;2049788;28;20039;-66
2022/09/08 01:52:48;;;;;;;0.65;0.57;;;;;;;;;;2049599;28;20026;-66
2022/09/08 01:54:07;;;;;;;1.75;0.47;;;;;;;;;;2046088;28;20039;-66
2022/09/08 01:55:26;;;;;;;1.75;0.50;;;;;;;;;;2048247;28;20032;-67
2022/09/08 01:56:45;;;;;;;1.45;0.50;;;;;;;;;;2050816;28;20685;-66
2022/09/08 01:58:04;;;;;;;0.68;0.68;;;;;;;;;;2048557;28;20484;-66
2022/09/08 01:59:23;;;;;;;0.50;0.35;;;;;;;;;;2051659;28;20019;-66
2022/09/08 02:00:42;;;;;;;1.35;0.65;;;;;;;;;;2047886;28;20027;-66
2022/09/08 02:02:01;;;;;;;0.68;0.40;;;;;;;;;;2046759;28;20031;-66
2022/09/08 02:03:20;;;;;;;0.38;0.38;;;;;;;;;;2046950;28;20082;-66
2022/09/08 02:04:39;;;;;;;0.52;0.30;;;;;;;;;;2048293;28;20027;-66
2022/09/08 02:05:59;;;;;;;0.40;0.40;;;;;;;;;;2047100;28;20035;-66
2022/09/08 02:07:18;;;;;;;0.65;0.40;;;;;;;;;;2051964;28;20112;-66
2022/09/08 02:08:37;;;;;;;0.60;0.50;;;;;;;;;;2050027;28;20721;-66
2022/09/08 02:09:56;;;;;;;0.40;0.40;;;;;;;;;;2047746;28;20043;-66
2022/09/08 02:11:16;;;;;;;0.60;0.50;;;;;;;;;;2050691;28;20023;-66
2022/09/08 02:12:35;;;;;;;4.32;0.88;;;;;;;;;;2047479;28;20027;-66
2022/09/08 02:13:54;;;;;;;0.93;0.40;;;;;;;;;;2049388;28;20031;-66
2022/09/08 02:15:13;;;;;;;0.40;0.40;;;;;;;;;;2047343;28;20384;-66
2022/09/08 02:16:32;;;;;;;1.58;0.30;;;;;;;;;;2050393;28;20453;-66
2022/09/08 02:17:51;;;;;;;0.57;0.40;;;;;;;;;;2047182;28;20027;-67
2022/09/08 02:19:11;;;;;;;0.60;0.60;;;;;;;;;;2050282;28;20031;-66
2022/09/08 02:20:30;;;;;;;0.95;0.43;;;;;;;;;;2048409;28;20589;-66
2022/09/08 02:21:49;;;;;;;0.75;0.73;;;;;;;;;;2047293;28;20048;-66
2022/09/08 02:23:08;;;;;;;0.60;0.60;;;;;;;;;;2048823;28;20549;-66
2022/09/08 02:24:27;;;;;;;0.50;0.50;;;;;;;;;;2049604;28;20114;-66
2022/09/08 02:25:46;;;;;;;0.60;0.60;;;;;;;;;;2048241;28;20384;-67
2022/09/08 02:27:05;;;;;;;3.10;0.50;;;;;;;;;;2051550;28;20393;-66
2022/09/08 02:28:24;;;;;;;1.23;0.50;;;;;;;;;;2048687;28;20114;-67
2022/09/08 02:29:44;;;;;;;0.60;0.60;;;;;;;;;;2048271;28;20912;-66
2022/09/08 02:31:02;;;;;;;0.50;0.50;;;;;;;;;;2050037;28;20118;-66
2022/09/08 02:32:21;;;;;;;1.10;0.52;;;;;;;;;;2048274;28;20127;-66
2022/09/08 02:33:40;;;;;;;0.68;0.50;;;;;;;;;;2046445;28;20388;-66
2022/09/08 02:34:59;;;;;;;0.85;0.50;;;;;;;;;;2050288;28;22544;-66
2022/09/08 02:36:18;;;;;;;0.52;0.47;;;;;;;;;;2046187;28;20713;-66
2022/09/08 02:37:37;;;;;;;0.93;0.60;;;;;;;;;;2048335;28;20455;-67
2022/09/08 02:38:56;;;;;;;0.70;0.50;;;;;;;;;;2051261;28;20126;-66
2022/09/08 02:40:15;;;;;;;0.70;0.70;;;;;;;;;;2047805;28;20106;-66
2022/09/08 02:41:34;;;;;;;0.55;0.55;;;;;;;;;;2049337;28;20032;-66
2022/09/08 02:42:54;;;;;;;1.02;0.43;;;;;;;;;;2049659;28;20415;-66
2022/09/08 02:44:14;;;;;;;0.65;0.63;;;;;;;;;;2048369;28;20050;-66
2022/09/08 02:45:37;;;;;;;0.85;0.45;;;;;;;;;;2046792;28;20035;-66
2022/09/08 02:46:56;;;;;;;1.85;0.80;;;;;;;;;;2050469;28;20039;-66
2022/09/08 02:48:15;;;;;;;2.33;0.63;;;;;;;;;;2045524;28;20031;-66
2022/09/08 02:49:34;;;;;;;0.73;0.50;;;;;;;;;;2048937;28;20027;-66
2022/09/08 02:50:52;;;;;;;2.05;0.68;;;;;;;;;;2050476;28;20043;-66
2022/09/08 02:52:11;;;;;;;0.55;0.52;;;;;;;;;;2037132;29;20104;-66
2022/09/08 02:53:31;;;;;;;0.40;0.40;;;;;;;;;;2043816;28;20027;-66
2022/09/08 02:54:50;;;;;;;0.65;0.63;;;;;;;;;;2050756;28;20035;-66
2022/09/08 02:56:09;;;;;;;0.70;0.70;;;;;;;;;;2049677;28;20110;-66
2022/09/08 02:57:28;;;;;;;0.52;0.52;;;;;;;;;;2049077;28;20028;-66
2022/09/08 02:58:47;;;;;;;0.50;0.50;;;;;;;;;;2049538;28;20031;-66
2022/09/08 03:00:06;;;;;;;0.50;0.50;;;;;;;;;;2046050;28;20427;-66
2022/09/08 03:01:25;;;;;;;0.75;0.43;;;;;;;;;;2050909;28;20026;-66
2022/09/08 03:02:44;;;;;;;2.10;0.70;;;;;;;;;;2043569;29;20090;-66
2022/09/08 03:04:03;;;;;;;0.68;0.63;;;;;;;;;;2044281;28;20555;-66
2022/09/08 03:05:22;;;;;;;0.50;0.50;;;;;;;;;;2049515;28;20090;-66
2022/09/08 03:06:42;;;;;;;0.40;0.40;;;;;;;;;;2050539;28;20559;-66
2022/09/08 03:08:03;;;;;;;0.70;0.70;;;;;;;;;;2048285;28;20134;-66
2022/09/08 03:09:22;;;;;;;4.53;0.60;;;;;;;;;;2048476;28;20039;-66
2022/09/08 03:10:41;;;;;;;0.75;0.63;;;;;;;;;;2046828;28;20035;-66
2022/09/08 03:12:00;;;;;;;0.80;0.80;;;;;;;;;;2048694;28;20031;-66
2022/09/08 03:13:20;;;;;;;2.05;0.68;;;;;;;;;;2048115;28;20032;-66
2022/09/08 03:14:39;;;;;;;0.75;0.50;;;;;;;;;;2049069;28;20030;-66
2022/09/08 03:15:58;;;;;;;1.90;0.75;;;;;;;;;;2045911;28;20023;-66
2022/09/08 03:17:17;;;;;;;1.35;0.90;;;;;;;;;;2050274;28;20031;-66
2022/09/08 03:18:36;;;;;;;2.47;0.80;;;;;;;;;;2050130;28;20034;-67
2022/09/08 03:19:55;;;;;;;0.80;0.55;;;;;;;;;;2047556;28;20035;-67
2022/09/08 03:21:15;;;;;;;1.55;0.70;;;;;;;;;;2048260;28;20031;-67
2022/09/08 03:22:34;;;;;;;0.60;0.60;;;;;;;;;;2049439;28;20043;-67
2022/09/08 03:23:53;;;;;;;0.55;0.50;;;;;;;;;;2049274;28;20035;-67
2022/09/08 03:25:12;;;;;;;0.50;0.50;;;;;;;;;;2047300;28;20031;-67
2022/09/08 03:26:31;;;;;;;0.85;0.60;;;;;;;;;;2047417;28;20039;-67
2022/09/08 03:27:50;;;;;;;1.02;0.60;;;;;;;;;;2046299;28;20126;-67
2022/09/08 03:29:09;;;;;;;1.42;0.63;;;;;;;;;;2048918;28;20031;-67
2022/09/08 03:30:28;;;;;;;4.93;0.75;;;;;;;;;;2048105;28;21012;-67
2022/09/08 03:31:47;;;;;;;0.73;0.50;;;;;;;;;;2048682;28;20043;-67
2022/09/08 03:33:06;;;;;;;0.60;0.60;;;;;;;;;;2050075;28;20476;-67
2022/09/08 03:34:26;;;;;;;2.55;0.80;;;;;;;;;;2048952;28;20027;-67
2022/09/08 03:35:47;;;;;;;0.68;0.68;;;;;;;;;;2047926;28;20027;-67
2022/09/08 03:37:05;;;;;;;0.95;0.55;;;;;;;;;;2049156;28;20019;-67
2022/09/08 03:38:24;;;;;;;0.73;0.60;;;;;;;;;;2045183;28;20024;-67
2022/09/08 03:39:44;;;;;;;2.88;0.80;;;;;;;;;;2047771;28;20492;-67
2022/09/08 03:41:07;;;;;;;4.00;0.77;;;;;;;;;;2050564;28;20056;-67
2022/09/08 03:42:26;;;;;;;3.50;0.70;;;;;;;;;;2049423;28;20480;-67
2022/09/08 03:43:46;;;;;;;0.50;0.50;;;;;;;;;;2047159;28;20144;-67
2022/09/08 03:45:07;;;;;;;3.17;0.57;;;;;;;;;;2047659;28;20505;-67
2022/09/08 03:46:26;;;;;;;1.50;0.63;;;;;;;;;;2050291;28;20117;-67
2022/09/08 03:47:45;;;;;;;1.40;0.77;;;;;;;;;;2047030;28;20027;-67
2022/09/08 03:49:04;;;;;;;1.13;0.70;;;;;;;;;;2049622;28;21368;-67
2022/09/08 03:50:23;;;;;;;1.73;0.50;;;;;;;;;;2045313;28;20757;-67
2022/09/08 03:51:42;;;;;;;3.13;0.60;;;;;;;;;;2040122;29;20039;-67
2022/09/08 03:53:01;;;;;;;2.22;0.82;;;;;;;;;;2045279;28;20032;-67
2022/09/08 03:55:58;;;;;;;3.83;0.60;;;;;;;;;;2047415;28;20500;-67
2022/09/08 03:57:27;;;;;;;1.77;0.68;;;;;;;;;;2049944;28;20034;-67
2022/09/08 03:58:46;;;;;;;3.10;0.90;;;;;;;;;;2048601;28;20051;-67
2022/09/08 04:00:07;;;;;;;3.65;0.73;;;;;;;;;;2046581;28;20035;-67
2022/09/08 04:01:26;;;;;;;2.38;0.68;;;;;;;;;;2048991;28;20081;-67
2022/09/08 04:02:45;;;;;;;1.30;0.73;;;;;;;;;;2050542;28;20047;-67
2022/09/08 04:04:04;;;;;;;2.58;0.70;;;;;;;;;;2048100;28;20039;-68
2022/09/08 04:05:23;;;;;;;1.55;0.80;;;;;;;;;;2047141;28;20078;-67
2022/09/08 04:06:43;;;;;;;0.60;0.60;;;;;;;;;;2050658;28;20043;-67
2022/09/08 04:08:02;;;;;;;1.92;0.65;;;;;;;;;;2048414;28;20947;-66
2022/09/08 04:09:21;;;;;;;0.75;0.65;;;;;;;;;;2051003;28;20031;-67
2022/09/08 04:10:41;;;;;;;1.08;0.60;;;;;;;;;;2046755;28;20039;-67
2022/09/08 04:12:01;;;;;;;0.70;0.70;;;;;;;;;;2047854;28;20043;-67
2022/09/08 04:13:20;;;;;;;1.27;0.70;;;;;;;;;;2051424;28;20032;-67
2022/09/08 04:14:39;;;;;;;2.53;0.70;;;;;;;;;;2048658;28;20027;-67
2022/09/08 04:15:58;;;;;;;0.73;0.73;;;;;;;;;;2045759;28;20047;-67
2022/09/08 04:17:18;;;;;;;1.85;0.73;;;;;;;;;;2047828;28;20031;-67
2022/09/08 04:18:37;;;;;;;1.63;0.68;;;;;;;;;;2049887;28;20387;-67
2022/09/08 04:19:56;;;;;;;1.95;0.70;;;;;;;;;;2046638;28;20035;-67
2022/09/08 04:21:15;;;;;;;3.88;0.60;;;;;;;;;;2049223;28;20035;-67
2022/09/08 04:22:34;;;;;;;3.65;0.98;;;;;;;;;;2051581;28;20031;-67
2022/09/08 04:23:53;;;;;;;1.00;0.70;;;;;;;;;;2047379;28;20035;-66
2022/09/08 04:25:12;;;;;;;2.08;0.70;;;;;;;;;;2051005;28;20039;-68
2022/09/08 04:26:31;;;;;;;3.13;0.75;;;;;;;;;;2043298;29;20031;-67
2022/09/08 04:27:49;;;;;;;1.60;0.88;;;;;;;;;;2045588;28;20036;-67
2022/09/08 04:29:08;;;;;;;0.98;0.75;;;;;;;;;;2051251;28;20500;-67
2022/09/08 04:30:27;;;;;;;0.95;0.82;;;;;;;;;;2048772;28;20064;-66
2022/09/08 04:31:48;;;;;;;3.63;0.80;;;;;;;;;;2048170;28;20039;-66
2022/09/08 04:33:07;;;;;;;1.42;0.77;;;;;;;;;;2050420;28;20035;-67
2022/09/08 04:34:26;;;;;;;1.75;1.00;;;;;;;;;;2050032;28;20027;-67
2022/09/08 04:35:45;;;;;;;1.75;0.90;;;;;;;;;;2044246;28;20087;-67
2022/09/08 04:37:04;;;;;;;1.75;1.10;;;;;;;;;;2047722;28;20404;-68
2022/09/08 04:38:23;;;;;;;3.05;1.10;;;;;;;;;;2046304;28;20118;-67
2022/09/08 04:39:42;;;;;;;2.15;0.80;;;;;;;;;;2046731;28;20050;-67
2022/09/08 04:41:08;;;;;;;3.88;1.52;;;;;;;;;;2049987;28;20027;-67
2022/09/08 04:42:28;;;;;;;3.75;1.23;;;;;;;;;;2052059;28;20102;-67
2022/09/08 04:43:47;;;;;;;4.25;1.33;;;;;;;;;;2050654;28;20031;-66
2022/09/08 04:45:06;;;;;;;2.33;1.00;;;;;;;;;;2043425;29;20044;-66
2022/09/08 04:46:24;;;;;;;2.08;1.33;;;;;;;;;;2046312;28;20071;-67
2022/09/08 04:47:43;;;;;;;3.60;1.30;;;;;;;;;;2050733;28;20039;-67
2022/09/08 04:49:03;;;;;;;1.77;1.50;;;;;;;;;;2051912;28;20035;-66
2022/09/08 04:50:21;;;;;;;1.20;1.00;;;;;;;;;;2046025;28;20035;-66
2022/09/08 04:51:40;;;;;;;3.47;1.20;;;;;;;;;;2046816;28;20154;-66
2022/09/08 04:52:59;;;;;;;4.15;1.38;;;;;;;;;;2045781;28;21506;-66
2022/09/08 04:54:18;;;;;;;5.13;1.65;;;;;;;;;;2050584;28;20055;-67
2022/09/08 04:55:38;;;;;;;8.40;1.15;;;;;;;;;;2049634;28;20023;-66
2022/09/08 04:56:57;;;;;;;5.35;1.75;;;;;;;;;;2050303;28;20035;-66
2022/09/08 04:58:16;;;;;;;7.57;1.48;;;;;;;;;;2048872;28;20039;-66
2022/09/08 04:59:35;;;;;;;8.07;1.70;;;;;;;;;;2049216;28;20040;-67
2022/09/08 05:00:53;;;;;;;6.53;2.05;;;;;;;;;;2049058;28;20105;-66
2022/09/08 05:02:13;;;;;;;5.15;1.30;;;;;;;;;;2041447;28;20043;-66
2022/09/08 05:03:32;;;;;;;3.05;1.00;;;;;;;;;;2040482;28;20036;-66
2022/09/08 05:04:51;;;;;;;3.75;1.40;;;;;;;;;;2051905;28;20032;-66
2022/09/08 05:06:14;;;;;;;6.57;1.50;;;;;;;;;;2051214;28;20039;-66
2022/09/08 05:07:33;;;;;;;6.90;1.45;;;;;;;;;;2044662;28;20035;-66
2022/09/08 05:08:55;;;;;;;4.75;1.27;;;;;;;;;;2042766;28;20031;-67
2022/09/08 05:10:14;;;;;;;4.38;1.00;;;;;;;;;;2042588;28;20035;-67
2022/09/08 05:11:34;;;;;;;2.72;1.08;;;;;;;;;;2049494;28;20019;-67
2022/09/08 05:12:53;;;;;;;2.78;1.17;;;;;;;;;;2051841;28;20036;-67
2022/09/08 05:14:13;;;;;;;3.78;1.30;;;;;;;;;;2050698;28;20019;-67
2022/09/08 05:15:32;;;;;;;3.88;1.30;;;;;;;;;;2049911;28;20093;-67
2022/09/08 05:16:51;;;;;;;3.75;1.00;;;;;;;;;;2048128;28;20032;-67
2022/09/08 05:18:10;;;;;;;1.00;0.90;;;;;;;;;;2048021;28;20031;-67
2022/09/08 05:19:29;;;;;;;3.28;0.93;;;;;;;;;;2048608;28;20039;-67
2022/09/08 05:20:55;;;;;;;2.33;1.38;;;;;;;;;;2049986;28;21786;-66
2022/09/08 05:22:14;;;;;;;3.63;1.05;;;;;;;;;;2049516;28;20950;-66
2022/09/08 05:23:33;;;;;;;2.42;1.48;;;;;;;;;;2049164;28;20364;-67
2022/09/08 05:24:53;;;;;;;12.75;4.50;;;;;;;;;;2049481;28;20038;-66
2022/09/08 05:26:13;;;;;;;4.30;1.77;;;;;;;;;;2049383;28;20030;-64
2022/09/08 05:27:32;;;;;;;3.65;2.63;;;;;;;;;;2045632;28;20032;-66
2022/09/08 05:28:52;;;;;;;2.45;1.92;;;;;;;;;;2051488;28;20110;-66
2022/09/08 05:30:11;;;;;;;3.72;1.60;;;;;;;;;;2049983;28;20042;-67
2022/09/08 05:31:30;;;;;;;1.02;1.00;;;;;;;;;;2049162;28;20039;-67
2022/09/08 05:32:49;;;;;;;3.50;1.40;;;;;;;;;;2050420;28;20035;-67
2022/09/08 05:34:08;;;;;;;3.70;0.95;;;;;;;;;;2048826;28;20035;-67
2022/09/08 05:35:27;;;;;;;6.00;2.58;;;;;;;;;;2047448;28;20039;-67
2022/09/08 05:36:46;;;;;;;3.65;2.47;;;;;;;;;;2050615;28;20035;-66
2022/09/08 05:38:05;;;;;;;7.30;2.80;;;;;;;;;;2051223;28;20035;-67
2022/09/08 05:39:24;;;;;;;5.72;2.15;;;;;;;;;;2039227;29;20481;-66
2022/09/08 05:40:43;;;;;;;6.15;1.73;;;;;;;;;;2046256;28;20035;-66
2022/09/08 05:42:02;;;;;;;6.68;1.55;;;;;;;;;;2049860;28;20030;-67
2022/09/08 05:43:21;;;;;;;5.18;1.52;;;;;;;;;;2051263;28;20030;-66
2022/09/08 05:44:40;;;;;;;5.55;1.73;;;;;;;;;;2047792;28;20117;-67
2022/09/08 05:45:59;;;;;;;4.18;1.95;;;;;;;;;;2049154;28;20043;-67
2022/09/08 05:47:18;;;;;;;4.38;3.60;;;;;;;;;;2049586;28;20023;-67
2022/09/08 05:48:37;;;;;;;5.55;2.00;;;;;;;;;;2049909;28;20392;-67
2022/09/08 05:49:56;;;;;;;3.83;1.35;;;;;;;;;;2043338;28;20043;-67
2022/09/08 05:51:18;;;;;;;10.70;2.78;;;;;;;;;;2047795;28;20030;-67
2022/09/08 05:52:37;;;;;;;6.45;2.47;;;;;;;;;;2050802;28;20043;-67
2022/09/08 05:53:59;;;;;;;5.65;1.90;;;;;;;;;;2049859;28;20044;-67
2022/09/08 05:55:18;;;;;;;11.95;3.25;;;;;;;;;;2048431;28;20420;-68
2022/09/08 05:56:37;;;;;;;5.70;3.13;;;;;;;;;;2048936;28;21650;-68
2022/09/08 05:57:56;;;;;;;6.15;2.35;;;;;;;;;;2050055;28;20027;-68
2022/09/08 05:59:15;;;;;;;12.70;4.75;;;;;;;;;;2048222;28;20035;-68
2022/09/08 06:00:37;;;;;;;5.85;2.30;;;;;;;;;;2048878;28;20027;-68
2022/09/08 06:01:56;;;;;;;4.45;2.70;;;;;;;;;;2048972;28;20020;-68
2022/09/08 06:03:15;;;;;;;2.50;2.28;;;;;;;;;;2051203;28;20031;-68
2022/09/08 06:04:33;;;;;;;3.40;2.42;;;;;;;;;;2050205;28;20059;-67
2022/09/08 06:05:54;;;;;;;6.57;2.42;;;;;;;;;;2049747;28;20027;-67
2022/09/08 06:07:12;;;;;;;3.42;3.13;;;;;;;;;;2044818;28;20035;-67
2022/09/08 06:08:31;;;;;;;3.97;2.95;;;;;;;;;;2051812;28;21039;-67
2022/09/08 06:09:51;;;;;;;6.90;3.97;;;;;;;;;;2050624;28;20480;-67
2022/09/08 06:11:10;;;;;;;3.97;3.67;;;;;;;;;;2049989;28;20036;-67
2022/09/08 06:12:29;;;;;;;5.85;2.80;;;;;;;;;;2050453;28;20122;-67
2022/09/08 06:13:48;;;;;;;4.40;2.90;;;;;;;;;;2051392;28;20034;-67
2022/09/08 06:15:08;;;;;;;4.35;2.50;;;;;;;;;;2049936;28;20019;-66
2022/09/08 06:16:27;;;;;;;4.50;1.20;;;;;;;;;;2050852;28;20035;-67
2022/09/08 06:17:46;;;;;;;4.18;1.70;;;;;;;;;;2049538;28;20500;-66
2022/09/08 06:19:06;;;;;;;2.58;2.30;;;;;;;;;;2050594;28;20030;-67
2022/09/08 06:20:25;;;;;;;2.40;1.42;;;;;;;;;;2041754;28;20417;-68
2022/09/08 06:21:44;;;;;;;3.05;1.00;;;;;;;;;;2044398;28;20484;-67
2022/09/08 06:23:03;;;;;;;3.72;1.77;;;;;;;;;;2049704;28;20031;-67
2022/09/08 06:24:21;;;;;;;1.42;1.15;;;;;;;;;;2051599;28;20507;-67
2022/09/08 06:25:44;;;;;;;2.00;1.10;;;;;;;;;;2051860;28;20035;-67
2022/09/08 06:27:10;;;;;;;1.42;0.95;;;;;;;;;;2051348;28;20487;-69
2022/09/08 06:28:34;;;;;;;2.05;0.90;;;;;;;;;;2050528;28;20106;-67
2022/09/08 06:29:53;;;;;;;3.90;1.38;;;;;;;;;;2050293;28;20036;-68
2022/09/08 06:31:13;;;;;;;2.17;0.90;;;;;;;;;;2048483;28;20031;-68
2022/09/08 06:32:48;;;;;;;0.98;0.88;;;;;;;;;;2041932;29;20036;-68
2022/09/08 06:34:15;;;;;;;0.95;0.95;;;;;;;;;;2050835;28;20027;-68
2022/09/08 06:35:35;;;;;;;1.17;1.08;;;;;;;;;;2050011;28;20039;-68
2022/09/08 06:37:02;;;;;;;2.08;0.90;;;;;;;;;;2051519;28;20020;-68
2022/09/08 06:38:34;;;;;;;1.35;1.08;;;;;;;;;;2049611;28;20109;-68
2022/09/08 06:40:13;;;;;;;4.53;1.10;;;;;;;;;;2051287;28;20023;-68
2022/09/08 06:41:46;;;;;;;2.03;1.50;;;;;;;;;;2051095;28;20062;-68
2022/09/08 06:43:24;;;;;;;2.88;1.10;;;;;;;;;;2049145;28;20039;-68
2022/09/08 06:44:44;;;;;;;2.40;1.20;;;;;;;;;;2051788;28;20043;-68
2022/09/08 06:46:29;;;;;;;2.58;1.10;;;;;;;;;;2042060;29;20032;-68
2022/09/08 06:48:03;;;;;;;1.55;0.63;;;;;;;;;;2049622;28;20028;-68
2022/09/08 06:49:29;;;;;;;1.02;0.70;;;;;;;;;;2050928;28;20039;-68
2022/09/08 06:50:52;;;;;;;0.70;0.68;;;;;;;;;;2050231;28;20035;-68
2022/09/08 06:52:27;;;;;;;1.23;0.77;;;;;;;;;;2048687;28;20495;-68
2022/09/08 06:53:49;;;;;;;2.70;0.63;;;;;;;;;;2051608;28;20559;-68
2022/09/08 06:55:14;;;;;;;2.28;0.70;;;;;;;;;;2051302;28;20039;-67
2022/09/08 06:56:49;;;;;;;0.70;0.68;;;;;;;;;;2050049;28;20035;-68
2022/09/08 06:58:24;;;;;;;0.60;0.50;;;;;;;;;;2048102;28;20392;-68
2022/09/08 06:59:47;;;;;;;0.50;0.35;;;;;;;;;;2049605;28;20376;-68
2022/09/08 07:01:13;;;;;;;0.88;0.32;;;;;;;;;;2051501;28;20391;-68
2022/09/08 07:02:50;;;;;;;1.23;0.40;;;;;;;;;;2050510;28;20929;-68
2022/09/08 07:04:22;;;;;;;2.03;0.60;;;;;;;;;;2049968;28;20035;-68
2022/09/08 07:05:51;;;;;;;1.63;0.50;;;;;;;;;;2049376;28;20042;-67
2022/09/08 07:07:21;;;;;;;1.35;0.60;;;;;;;;;;2042939;29;20031;-68
2022/09/08 07:08:49;;;;;;;0.50;0.30;;;;;;;;;;2049000;28;20391;-67
2022/09/08 07:10:11;;;;;;;2.53;0.60;;;;;;;;;;2051514;28;20043;-67
2022/09/08 07:11:33;;;;;;;2.85;0.50;;;;;;;;;;2048056;28;20043;-67
2022/09/08 07:13:05;;;;;;;0.88;0.45;;;;;;;;;;2049280;28;20408;-68
2022/09/08 07:14:42;;;;;;;2.72;0.57;;;;;;;;;;2050068;28;20114;-68
2022/09/08 07:16:12;;;;;;;1.75;0.50;;;;;;;;;;2050181;28;20031;-68
2022/09/08 07:17:47;;;;;;;1.55;0.28;;;;;;;;;;2050246;28;20480;-68
2022/09/08 07:19:25;;;;;;;0.65;0.47;;;;;;;;;;2050353;28;20035;-68
2022/09/08 07:20:44;;;;;;;3.13;0.45;;;;;;;;;;2051170;28;20035;-68
2022/09/08 07:22:18;;;;;;;0.35;0.30;;;;;;;;;;2051085;28;20043;-68
2022/09/08 07:23:38;;;;;;;0.52;0.32;;;;;;;;;;2050371;28;20031;-68
2022/09/08 07:25:20;;;;;;;3.40;0.50;;;;;;;;;;2049138;28;20035;-68
2022/09/08 07:26:47;;;;;;;1.05;0.40;;;;;;;;;;2050934;28;20035;-68
2022/09/08 07:28:11;;;;;;;1.15;0.30;;;;;;;;;;2051126;28;20106;-68
2022/09/08 07:29:35;;;;;;;0.80;0.20;;;;;;;;;;2050043;28;20122;-68
2022/09/08 07:30:59;;;;;;;0.65;0.40;;;;;;;;;;2050343;28;20039;-68
2022/09/08 07:32:25;;;;;;;0.82;0.40;;;;;;;;;;2051486;28;20039;-69
2022/09/08 07:33:45;;;;;;;0.30;0.30;;;;;;;;;;2050198;28;20031;-68
2022/09/08 07:35:10;;;;;;;0.73;0.40;;;;;;;;;;2050999;28;20026;-69
2022/09/08 07:36:33;;;;;;;2.55;0.47;;;;;;;;;;2051293;28;20023;-67
2022/09/08 07:37:54;;;;;;;0.38;0.38;;;;;;;;;;2049155;28;20044;-67
2022/09/08 07:39:16;;;;;;;2.25;0.40;;;;;;;;;;2043226;29;20032;-67
2022/09/08 07:40:39;;;;;;;0.38;0.30;;;;;;;;;;2048799;28;20102;-67
2022/09/08 07:42:02;;;;;;;2.63;0.50;;;;;;;;;;2050919;28;20031;-67
2022/09/08 07:43:22;;;;;;;0.50;0.35;;;;;;;;;;2050170;28;20035;-68
2022/09/08 07:44:41;;;;;;;1.92;0.40;;;;;;;;;;2050536;28;20403;-68
2022/09/08 07:46:00;;;;;;;0.40;0.30;;;;;;;;;;2050245;28;20039;-68
2022/09/08 07:47:19;;;;;;;1.42;0.60;;;;;;;;;;2051420;28;20056;-68
2022/09/08 07:48:49;;;;;;;0.80;0.40;;;;;;;;;;2050256;28;20024;-68
2022/09/08 07:50:18;;;;;;;2.58;0.40;;;;;;;;;;2051439;28;20113;-68
2022/09/08 07:51:49;;;;;;;1.45;0.40;;;;;;;;;;2049440;28;20125;-68
2022/09/08 07:53:16;;;;;;;3.75;0.32;;;;;;;;;;2049775;28;20035;-69
2022/09/08 07:54:55;;;;;;;0.57;0.50;;;;;;;;;;2050273;28;20047;-68
2022/09/08 07:56:32;;;;;;;3.03;0.40;;;;;;;;;;2028284;28;20029;-68
2022/09/08 07:58:10;;;;;;;2.50;0.70;;;;;;;;;;2052007;28;20054;-68
2022/09/08 07:59:32;;;;;;;2.85;0.60;;;;;;;;;;2050939;28;20027;-68
2022/09/08 08:01:01;;;;;;;1.33;0.70;;;;;;;;;;2050735;28;20015;-68
2022/09/08 08:02:20;;;;;;;2.97;1.10;;;;;;;;;;2052517;28;20027;-67
2022/09/08 08:03:45;;;;;;;1.38;1.27;;;;;;;;;;2044091;29;20055;-65
2022/09/08 08:05:17;;;;;;;2.45;0.80;;;;;;;;;;2050352;28;20038;-65
2022/09/08 08:06:36;;;;;;;6.22;0.60;;;;;;;;;;2052568;28;20028;-64
2022/09/08 08:08:14;;;;;;;0.40;0.40;;;;;;;;;;2052354;28;20456;-68
2022/09/08 08:09:43;;;;;;;2.92;0.50;;;;;;;;;;2050803;28;20054;-68
2022/09/08 08:11:03;;;;;;;0.52;0.40;;;;;;;;;;2051981;28;20476;-68
2022/09/08 08:12:22;;;;;;;1.02;0.60;;;;;;;;;;2051008;28;20416;-68
2022/09/08 08:14:00;;;;;;;1.10;0.57;;;;;;;;;;2052074;28;20059;-68
2022/09/08 08:15:26;;;;;;;0.63;0.52;;;;;;;;;;2050630;28;20031;-68
2022/09/08 08:17:04;;;;;;;3.42;0.50;;;;;;;;;;2052417;28;20031;-68